Ceres, Argentina
Current Conditions -  °F | °C
As of 2:00 AM on Wednesday 26 Nov 2014 (Local Time) from SACO Reporting Station
Thunderstorm Thunderstorm  
Wind Chill: 63°   Ceiling: 5000
Heat Index: 63°   Visibility: 3mi
Dew Point: 59°   Wind: 2mph
Humidity: 88%   Direction: 140°SE
Pressure: 30"   Gusts: NA
Location:  29.88°S, 61.94°W
Report Text: SACO 260500Z 14002KT 5000 -TSRA SCT020 FEW045CB BKN050 17/15 Q1016
Loading
Personal Weather Stations






























Interactive Weather Map New forecast layout! Learn more

10-Day Weather Forecast

Advertisements
Track Severe Weather on mobile